Time;durP1;ratioP1;P1;durP2;ratioP2;P2;SDS_P1;SDS_P2;PMS_P1;PMS_P2;Temp;Humidity;BMP_temperature;BMP_pressure;BME280_temperature;BME280_humidity;BME280_pressure;Samples;Min_cycle;Max_cycle;Signal;HPM_P1;HPM_P2
2022/05/13 00:02:07;;;;;;;9.55;2.80;;;12.00;99.90;;;;;;5054817;28;20036;-90
2022/05/13 00:04:33;;;;;;;7.30;2.95;;;11.90;99.90;;;;;;5054759;28;20037;-89
2022/05/13 00:06:59;;;;;;;8.43;3.10;;;11.90;99.90;;;;;;5054768;28;20127;-89
2022/05/13 00:09:56;;;;;;;10.07;2.67;;;11.90;99.90;;;;;;5055111;28;20127;-90
2022/05/13 00:12:10;;;;;;;7.45;2.38;;;11.80;99.90;;;;;;5054447;28;20044;-89
2022/05/13 00:14:36;;;;;;;9.68;2.60;;;11.80;99.90;;;;;;5037944;28;20543;-89
2022/05/13 00:17:02;;;;;;;10.35;2.25;;;11.70;99.90;;;;;;5054573;28;20071;-89
2022/05/13 00:19:27;;;;;;;8.35;2.20;;;11.70;99.90;;;;;;5054304;28;20070;-90
2022/05/13 00:21:53;;;;;;;10.77;2.65;;;11.70;99.90;;;;;;5037603;28;20044;-90
2022/05/13 00:24:18;;;;;;;9.07;2.78;;;11.60;99.90;;;;;;5054429;28;20036;-91
2022/05/13 00:26:44;;;;;;;7.88;2.13;;;11.60;99.90;;;;;;5054842;28;20125;-90
2022/05/13 00:29:09;;;;;;;8.43;2.35;;;11.50;99.90;;;;;;5054790;28;20512;-90
2022/05/13 00:31:35;;;;;;;8.43;2.70;;;11.50;99.90;;;;;;5037806;28;20502;-91
2022/05/13 00:34:01;;;;;;;8.38;2.40;;;11.50;99.90;;;;;;5037735;28;20458;-90
2022/05/13 00:36:27;;;;;;;7.00;2.15;;;11.50;99.90;;;;;;5038023;28;20033;-90
2022/05/13 00:38:52;;;;;;;5.68;2.10;;;11.40;99.90;;;;;;5037751;28;20497;-90
2022/05/13 00:41:18;;;;;;;9.82;2.13;;;11.50;99.90;;;;;;5037421;28;20409;-90
2022/05/13 00:43:52;;;;;;;9.20;2.20;;;11.40;99.90;;;;;;5054283;28;20036;-91
2022/05/13 00:46:21;;;;;;;5.55;2.20;;;11.40;99.90;;;;;;5038006;28;20045;-90
2022/05/13 00:48:47;;;;;;;7.47;2.10;;;11.40;99.90;;;;;;5053839;28;20041;-90
2022/05/13 00:51:17;;;;;;;10.15;2.80;;;11.40;99.90;;;;;;5054043;28;20123;-90
2022/05/13 00:53:44;;;;;;;9.98;2.20;;;11.40;99.90;;;;;;5053901;28;20037;-90
2022/05/13 00:56:09;;;;;;;7.40;2.22;;;11.40;99.90;;;;;;5053446;28;20071;-90
2022/05/13 00:58:39;;;;;;;8.13;2.38;;;11.40;99.90;;;;;;5037453;28;20149;-90
2022/05/13 01:01:05;;;;;;;8.70;2.33;;;11.40;99.90;;;;;;5053705;28;20052;-90
2022/05/13 01:03:32;;;;;;;7.40;2.28;;;11.40;99.90;;;;;;5037443;28;20078;-90
2022/05/13 01:06:03;;;;;;;9.38;2.33;;;11.40;99.90;;;;;;5054133;28;20452;-90
2022/05/13 01:08:32;;;;;;;9.82;2.25;;;11.40;99.90;;;;;;5053988;28;20036;-90
2022/05/13 01:11:01;;;;;;;7.43;2.22;;;11.30;99.90;;;;;;5053842;28;20608;-90
2022/05/13 01:13:30;;;;;;;9.80;2.58;;;11.30;99.90;;;;;;5054307;28;20129;-90
2022/05/13 01:15:56;;;;;;;9.57;2.80;;;11.40;99.90;;;;;;5054162;28;20040;-90
2022/05/13 01:18:34;;;;;;;6.60;2.15;;;11.40;99.90;;;;;;5053654;28;20145;-91
2022/05/13 01:21:00;;;;;;;8.27;2.50;;;11.30;99.90;;;;;;5053532;28;20041;-90
2022/05/13 01:23:36;;;;;;;7.32;2.22;;;11.30;99.90;;;;;;5053833;28;20556;-91
2022/05/13 01:26:09;;;;;;;9.25;2.25;;;11.30;99.90;;;;;;5053875;28;20043;-91
2022/05/13 01:28:37;;;;;;;6.95;2.08;;;11.30;99.90;;;;;;5037352;28;20047;-90
2022/05/13 01:31:07;;;;;;;9.05;2.13;;;11.20;99.90;;;;;;5036767;28;20044;-89
2022/05/13 01:33:33;;;;;;;9.60;2.53;;;11.30;99.90;;;;;;5037147;28;20123;-89
2022/05/13 01:36:01;;;;;;;8.52;2.08;;;11.30;99.90;;;;;;5053903;28;20052;-90
2022/05/13 01:38:33;;;;;;;9.77;2.13;;;11.20;99.90;;;;;;5054179;28;20040;-90
2022/05/13 01:40:59;;;;;;;7.65;2.40;;;11.20;99.90;;;;;;5036856;28;20032;-90
2022/05/13 01:43:26;;;;;;;8.55;2.47;;;11.20;99.90;;;;;;5037151;28;20036;-89
2022/05/13 01:45:53;;;;;;;6.47;2.20;;;11.20;99.90;;;;;;5053859;28;20156;-89
2022/05/13 01:48:19;;;;;;;6.32;2.03;;;11.20;99.90;;;;;;5053532;28;20126;-89
2022/05/13 01:50:45;;;;;;;12.30;3.03;;;11.20;99.90;;;;;;5053254;28;20036;-89
2022/05/13 01:53:11;;;;;;;7.10;1.85;;;11.20;99.90;;;;;;5036718;28;20037;-89
2022/05/13 01:55:42;;;;;;;8.85;2.08;;;11.20;99.90;;;;;;5036891;28;20470;-89
2022/05/13 01:58:11;;;;;;;6.72;2.40;;;11.20;99.90;;;;;;5053297;28;20071;-89
2022/05/13 02:00:37;;;;;;;7.28;2.17;;;11.20;99.90;;;;;;5053167;28;20521;-89
2022/05/13 02:05:46;;;;;;;6.85;2.03;;;11.10;99.90;;;;;;5054184;28;20036;-89
2022/05/13 02:08:12;;;;;;;7.88;2.38;;;11.10;99.90;;;;;;5057263;28;20033;-89
2022/05/13 02:10:37;;;;;;;7.85;2.38;;;11.10;99.90;;;;;;5056910;28;20551;-89
2022/05/13 02:13:03;;;;;;;9.30;2.20;;;11.10;99.90;;;;;;5040725;28;20549;-89
2022/05/13 02:15:29;;;;;;;9.65;2.60;;;11.10;99.90;;;;;;5057439;28;20598;-89
2022/05/13 02:17:54;;;;;;;10.25;2.35;;;11.10;99.90;;;;;;5057307;28;20036;-89
2022/05/13 02:20:20;;;;;;;12.10;3.20;;;11.10;99.90;;;;;;5056655;28;20127;-88
2022/05/13 02:22:45;;;;;;;6.65;2.00;;;11.10;99.90;;;;;;5040480;28;20165;-90
2022/05/13 02:25:11;;;;;;;8.02;2.22;;;11.10;99.90;;;;;;5040505;28;20071;-89
2022/05/13 02:27:37;;;;;;;7.60;2.20;;;11.10;99.90;;;;;;5057097;28;20477;-90
2022/05/13 02:30:04;;;;;;;8.32;3.30;;;11.00;99.90;;;;;;5056714;28;20037;-90
2022/05/13 02:32:30;;;;;;;6.80;1.95;;;11.00;99.90;;;;;;5056691;28;20033;-89
2022/05/13 02:34:55;;;;;;;6.85;2.13;;;11.00;99.90;;;;;;5056653;28;20044;-89
2022/05/13 02:37:21;;;;;;;8.15;2.38;;;11.00;99.90;;;;;;5056845;28;20465;-89
2022/05/13 02:39:47;;;;;;;12.15;2.40;;;10.90;99.90;;;;;;5056599;28;20402;-89
2022/05/13 02:42:14;;;;;;;7.90;2.45;;;10.90;99.90;;;;;;5055963;28;20044;-89
2022/05/13 02:44:40;;;;;;;8.40;2.45;;;10.90;99.90;;;;;;5039899;28;20037;-89
2022/05/13 02:47:06;;;;;;;8.35;2.30;;;10.90;99.90;;;;;;5056857;28;20063;-89
2022/05/13 02:49:32;;;;;;;8.35;2.40;;;10.90;99.90;;;;;;5039636;28;20071;-90
2022/05/13 02:51:57;;;;;;;10.50;2.58;;;10.90;99.90;;;;;;5056285;28;20048;-89
2022/05/13 02:54:23;;;;;;;10.98;2.88;;;10.90;99.90;;;;;;5056012;28;20040;-89
2022/05/13 02:56:48;;;;;;;5.57;1.98;;;10.90;99.90;;;;;;5056277;28;20047;-89
2022/05/13 02:59:14;;;;;;;9.35;2.17;;;10.90;99.90;;;;;;5056126;28;20048;-89
2022/05/13 03:01:39;;;;;;;8.85;2.08;;;10.90;99.90;;;;;;5055708;28;20074;-89
2022/05/13 03:04:05;;;;;;;7.95;2.08;;;10.80;99.90;;;;;;5056350;28;20035;-89
2022/05/13 03:06:31;;;;;;;8.55;2.08;;;10.90;99.90;;;;;;5055918;28;20510;-89
2022/05/13 03:08:56;;;;;;;7.63;1.95;;;10.80;99.90;;;;;;5055643;28;20044;-89
2022/05/13 03:11:22;;;;;;;9.32;2.20;;;10.70;99.90;;;;;;5055704;28;20040;-89
2022/05/13 03:13:49;;;;;;;9.85;2.90;;;10.70;99.90;;;;;;5056042;28;20474;-90
2022/05/13 03:16:19;;;;;;;11.35;2.53;;;10.70;99.90;;;;;;5039647;28;20047;-89
2022/05/13 03:18:46;;;;;;;8.35;2.60;;;10.60;99.90;;;;;;5054885;28;20040;-90
2022/05/13 03:21:12;;;;;;;7.00;2.13;;;10.60;99.90;;;;;;5055646;28;20102;-89
2022/05/13 03:23:42;;;;;;;7.95;1.90;;;10.60;99.90;;;;;;5056035;28;20113;-90
2022/05/13 03:26:08;;;;;;;10.52;2.38;;;10.50;99.90;;;;;;5055959;28;20045;-89
2022/05/13 03:28:34;;;;;;;8.43;2.00;;;10.50;99.90;;;;;;5055993;28;20041;-90
2022/05/13 03:31:00;;;;;;;9.38;2.33;;;10.50;99.90;;;;;;5055705;28;20422;-90
2022/05/13 03:33:26;;;;;;;10.35;2.42;;;10.50;99.90;;;;;;5055741;28;20105;-90
2022/05/13 03:35:52;;;;;;;8.40;2.40;;;10.60;99.90;;;;;;5056164;28;20135;-90
2022/05/13 03:38:18;;;;;;;8.20;2.05;;;10.50;99.90;;;;;;5039005;28;20051;-89
2022/05/13 03:40:46;;;;;;;10.73;2.53;;;10.60;99.90;;;;;;5073020;28;20040;-89
2022/05/13 03:43:11;;;;;;;12.95;2.95;;;10.60;99.90;;;;;;5055666;28;20047;-90
2022/05/13 03:45:37;;;;;;;11.27;1.88;;;10.60;99.90;;;;;;5055902;28;20025;-90
2022/05/13 03:48:04;;;;;;;7.60;2.15;;;10.60;99.90;;;;;;5055623;28;20560;-89
2022/05/13 03:50:30;;;;;;;13.73;2.63;;;10.60;99.90;;;;;;5055101;28;20127;-89
2022/05/13 03:52:56;;;;;;;8.93;2.45;;;10.60;99.90;;;;;;5055054;28;20044;-90
2022/05/13 03:55:22;;;;;;;12.20;2.40;;;10.60;99.90;;;;;;5055308;28;20047;-89
2022/05/13 03:57:48;;;;;;;9.90;2.28;;;10.60;99.90;;;;;;5038674;28;20067;-89
2022/05/13 04:00:15;;;;;;;8.10;2.30;;;10.70;99.90;;;;;;5054745;28;20047;-90
2022/05/13 04:02:40;;;;;;;9.82;2.15;;;10.60;99.90;;;;;;5055250;28;20044;-90
2022/05/13 04:10:36;;;;;;;9.20;2.83;;;10.70;99.90;;;;;;5054401;28;20418;-89
2022/05/13 04:18:31;;;;;;;10.30;2.72;;;10.70;99.90;;;;;;5054565;28;20049;-89
2022/05/13 04:20:57;;;;;;;9.40;2.50;;;10.70;99.90;;;;;;5054175;28;20441;-89
2022/05/13 04:23:23;;;;;;;13.13;3.20;;;10.80;99.90;;;;;;5054709;28;20047;-90
2022/05/13 04:25:49;;;;;;;10.88;2.60;;;10.70;99.90;;;;;;5038053;28;20046;-89
2022/05/13 04:28:15;;;;;;;10.30;2.83;;;10.80;99.90;;;;;;5047600;28;20119;-89
2022/05/13 04:30:41;;;;;;;10.50;2.78;;;10.80;99.90;;;;;;5035771;28;20048;-89
2022/05/13 04:33:06;;;;;;;12.07;3.15;;;10.80;99.90;;;;;;5052604;28;20040;-89
2022/05/13 04:35:32;;;;;;;9.90;2.90;;;10.90;99.90;;;;;;5053228;28;20086;-89
2022/05/13 04:37:58;;;;;;;12.35;2.97;;;10.90;99.90;;;;;;5035670;28;20532;-89
2022/05/13 04:40:23;;;;;;;11.60;2.55;;;10.90;99.90;;;;;;5035648;28;20043;-89
2022/05/13 04:42:52;;;;;;;11.88;2.95;;;10.90;99.90;;;;;;5070362;28;20075;-89
2022/05/13 04:45:27;;;;;;;17.23;3.28;;;11.00;99.90;;;;;;5052447;28;20115;-89
2022/05/13 04:50:39;;;;;;;11.52;3.20;;;11.00;99.90;;;;;;5052266;28;20048;-89
2022/05/13 04:53:07;;;;;;;10.40;3.05;;;11.00;99.90;;;;;;5052235;28;20044;-89
2022/05/13 04:55:33;;;;;;;17.38;2.92;;;11.00;99.90;;;;;;5036621;28;20043;-89
2022/05/13 04:57:58;;;;;;;17.10;3.75;;;11.10;99.90;;;;;;5053001;28;20413;-89
2022/05/13 05:00:24;;;;;;;12.43;3.22;;;11.10;99.90;;;;;;5052131;28;20045;-89
2022/05/13 05:02:50;;;;;;;12.30;3.15;;;11.10;99.90;;;;;;5051971;28;20032;-90
2022/05/13 05:05:16;;;;;;;8.95;3.10;;;11.10;99.90;;;;;;5053332;28;20618;-89
2022/05/13 05:07:42;;;;;;;11.65;3.60;;;11.10;99.90;;;;;;5052417;28;20040;-89
2022/05/13 05:10:08;;;;;;;17.48;3.72;;;11.20;99.90;;;;;;5052643;28;20041;-89
2022/05/13 05:12:34;;;;;;;12.75;3.63;;;11.20;99.90;;;;;;5052894;28;20878;-90
2022/05/13 05:14:59;;;;;;;16.77;3.33;;;11.20;99.90;;;;;;5053029;28;20039;-90
2022/05/13 05:17:26;;;;;;;14.57;4.40;;;11.30;99.90;;;;;;5052714;28;20033;-90
2022/05/13 05:19:51;;;;;;;12.02;3.30;;;11.30;99.90;;;;;;5052782;28;20045;-89
2022/05/13 05:22:17;;;;;;;14.23;3.75;;;11.30;99.90;;;;;;5052527;28;20063;-90
2022/05/13 05:24:42;;;;;;;15.18;3.67;;;11.30;99.90;;;;;;5044111;28;20401;-89
2022/05/13 05:27:10;;;;;;;13.73;3.95;;;11.30;99.90;;;;;;5036583;28;20037;-90
2022/05/13 05:29:36;;;;;;;11.23;3.08;;;11.40;99.90;;;;;;5035147;28;20029;-90
2022/05/13 05:32:02;;;;;;;12.13;3.80;;;11.40;99.90;;;;;;5053072;28;20079;-89
2022/05/13 05:34:28;;;;;;;13.00;3.95;;;11.40;99.90;;;;;;5053370;28;20041;-90
2022/05/13 05:36:53;;;;;;;15.65;4.22;;;11.50;99.90;;;;;;5052345;28;20110;-90
2022/05/13 05:39:19;;;;;;;20.25;4.53;;;11.60;99.90;;;;;;5071505;28;20123;-90
2022/05/13 05:41:44;;;;;;;17.08;4.10;;;11.60;99.90;;;;;;5054573;28;20037;-89
2022/05/13 05:44:10;;;;;;;14.68;3.80;;;11.60;99.90;;;;;;5073635;28;20039;-89
2022/05/13 05:46:35;;;;;;;18.48;4.45;;;11.70;99.90;;;;;;5073773;28;20574;-89
2022/05/13 05:49:02;;;;;;;12.52;4.63;;;11.80;99.90;;;;;;5039146;28;20494;-89
2022/05/13 05:51:27;;;;;;;14.50;4.10;;;11.80;99.90;;;;;;5056045;28;20075;-89
2022/05/13 05:59:21;;;;;;;15.27;4.35;;;11.90;99.90;;;;;;5056918;28;20044;-89
2022/05/13 06:01:47;;;;;;;16.63;4.32;;;12.00;99.90;;;;;;5055529;28;20121;-89
2022/05/13 06:04:13;;;;;;;16.83;4.68;;;12.00;99.90;;;;;;5039963;28;20054;-90
2022/05/13 06:06:38;;;;;;;16.33;5.47;;;12.00;99.90;;;;;;5056278;28;20398;-89
2022/05/13 06:09:04;;;;;;;16.95;4.50;;;12.20;99.90;;;;;;5056001;28;20119;-90
2022/05/13 06:11:29;;;;;;;16.05;4.38;;;12.20;99.90;;;;;;5054736;28;20086;-90
2022/05/13 06:13:57;;;;;;;13.93;4.10;;;12.40;99.90;;;;;;5056075;28;20497;-90
2022/05/13 06:16:24;;;;;;;16.30;4.85;;;12.50;99.90;;;;;;5056928;28;20044;-90
2022/05/13 06:18:50;;;;;;;17.42;4.90;;;12.60;99.90;;;;;;5039481;28;20703;-90
2022/05/13 06:21:16;;;;;;;14.80;4.82;;;12.70;99.90;;;;;;5055509;28;20098;-90
2022/05/13 06:23:41;;;;;;;19.80;4.78;;;12.90;99.90;;;;;;5056167;28;20143;-90
2022/05/13 06:26:07;;;;;;;13.00;3.60;;;13.00;99.90;;;;;;5039557;28;20062;-89
2022/05/13 06:28:33;;;;;;;15.88;5.70;;;13.10;99.90;;;;;;5038877;28;20156;-89
2022/05/13 06:30:59;;;;;;;13.93;3.85;;;13.20;99.90;;;;;;5055551;28;20072;-90
2022/05/13 06:33:25;;;;;;;15.23;4.35;;;13.30;99.90;;;;;;5056172;28;20649;-90
2022/05/13 06:35:52;;;;;;;15.75;4.05;;;13.40;99.90;;;;;;5056715;28;20374;-90
2022/05/13 06:38:22;;;;;;;14.82;4.20;;;13.50;99.90;;;;;;5055975;28;20037;-90
2022/05/13 06:40:53;;;;;;;13.85;3.38;;;13.50;99.90;;;;;;5055404;28;20047;-89
2022/05/13 06:43:20;;;;;;;12.05;4.63;;;13.60;99.90;;;;;;5039263;28;20067;-89
2022/05/13 06:45:46;;;;;;;12.77;3.25;;;13.70;99.90;;;;;;5055463;28;20118;-90
2022/05/13 06:48:12;;;;;;;12.75;4.10;;;13.80;99.90;;;;;;5038125;28;20087;-89
2022/05/13 06:50:38;;;;;;;12.07;3.92;;;13.80;99.90;;;;;;5054008;28;20044;-90
2022/05/13 06:53:04;;;;;;;13.27;3.58;;;13.80;99.90;;;;;;5071969;28;20041;-90
2022/05/13 06:55:30;;;;;;;14.73;3.63;;;13.80;99.90;;;;;;5056029;28;20494;-90
2022/05/13 06:57:56;;;;;;;12.93;3.83;;;13.80;99.90;;;;;;5055856;28;20048;-90
2022/05/13 07:00:22;;;;;;;11.70;3.58;;;13.80;99.90;;;;;;5054594;28;20040;-89
2022/05/13 07:02:47;;;;;;;15.63;3.70;;;13.80;99.90;;;;;;5038826;28;20044;-90
2022/05/13 07:05:16;;;;;;;10.70;3.38;;;13.80;99.90;;;;;;5038441;28;20043;-90
2022/05/13 07:07:42;;;;;;;12.15;3.47;;;13.80;99.90;;;;;;5055258;28;20712;-91
2022/05/13 07:10:08;;;;;;;11.40;3.13;;;13.90;99.90;;;;;;5054778;28;20123;-90
2022/05/13 07:12:34;;;;;;;12.05;3.53;;;13.90;99.90;;;;;;5038535;28;20517;-90
2022/05/13 07:15:00;;;;;;;12.30;4.10;;;13.90;99.90;;;;;;5054964;28;20040;-89
2022/05/13 07:17:25;;;;;;;13.88;3.47;;;13.90;99.90;;;;;;5038908;28;20044;-90
2022/05/13 07:19:51;;;;;;;10.10;2.72;;;13.90;99.90;;;;;;5055219;28;20153;-90
2022/05/13 07:22:17;;;;;;;10.40;2.55;;;13.90;99.90;;;;;;5054801;28;20036;-90
2022/05/13 07:24:43;;;;;;;14.02;3.83;;;13.80;99.90;;;;;;5054973;28;20043;-90
2022/05/13 07:27:08;;;;;;;10.52;3.17;;;13.80;99.90;;;;;;5054952;28;20036;-88
2022/05/13 07:29:34;;;;;;;12.20;4.03;;;13.80;99.90;;;;;;5067697;28;20050;-90
2022/05/13 07:31:59;;;;;;;10.90;3.40;;;13.80;99.90;;;;;;5065518;28;20033;-90
2022/05/13 07:34:25;;;;;;;13.82;3.35;;;13.80;99.90;;;;;;5065000;28;20040;-90
2022/05/13 07:36:53;;;;;;;10.38;3.63;;;13.80;99.90;;;;;;5060489;28;20040;-90
2022/05/13 07:42:14;;;;;;;12.30;3.67;;;13.90;99.90;;;;;;5074122;28;20052;-90
2022/05/13 07:44:40;;;;;;;13.82;4.07;;;14.00;99.90;;;;;;5047731;28;20032;-90
2022/05/13 07:47:08;;;;;;;12.95;3.55;;;14.10;99.90;;;;;;5064301;28;20044;-90
2022/05/13 07:49:34;;;;;;;11.18;3.17;;;14.20;99.90;;;;;;5056333;28;20047;-90
2022/05/13 07:52:00;;;;;;;12.68;3.55;;;14.40;99.90;;;;;;5055810;28;20040;-89
2022/05/13 07:54:26;;;;;;;16.58;3.60;;;14.60;99.90;;;;;;5055107;28;20506;-89
2022/05/13 07:56:52;;;;;;;10.52;3.17;;;14.80;99.90;;;;;;5054443;28;20048;-89
2022/05/13 07:59:19;;;;;;;11.05;3.00;;;14.90;99.90;;;;;;5054605;28;20040;-89
2022/05/13 08:01:45;;;;;;;12.27;3.33;;;14.90;99.90;;;;;;5053809;28;20044;-88
2022/05/13 08:04:11;;;;;;;7.80;2.03;;;14.90;99.90;;;;;;5053411;28;20044;-89
2022/05/13 08:06:38;;;;;;;9.70;2.47;;;14.90;99.90;;;;;;5071743;28;20055;-90
2022/05/13 08:09:04;;;;;;;7.43;2.08;;;14.90;99.90;;;;;;5036254;28;20089;-89
2022/05/13 08:11:30;;;;;;;7.82;2.22;;;15.00;99.90;;;;;;5036930;28;20040;-89
2022/05/13 08:13:56;;;;;;;8.95;2.15;;;15.20;99.90;;;;;;5052264;28;20043;-89
2022/05/13 08:16:26;;;;;;;8.07;1.92;;;15.20;99.90;;;;;;5053694;28;20033;-90
2022/05/13 08:18:53;;;;;;;10.30;2.58;;;15.10;99.90;;;;;;5037361;28;20036;-89
2022/05/13 08:21:19;;;;;;;7.80;1.83;;;15.10;99.90;;;;;;5053182;28;20047;-89
2022/05/13 08:23:45;;;;;;;8.80;2.00;;;15.30;99.90;;;;;;5053259;28;20091;-90
2022/05/13 08:26:11;;;;;;;7.60;1.90;;;15.40;99.90;;;;;;5052893;28;20044;-90
2022/05/13 08:28:38;;;;;;;8.38;2.00;;;15.40;99.90;;;;;;5052829;28;20036;-89
2022/05/13 08:31:03;;;;;;;9.80;1.85;;;15.30;99.90;;;;;;5036877;28;20513;-90
2022/05/13 08:33:29;;;;;;;7.00;1.70;;;15.40;99.90;;;;;;5053988;28;20084;-89
2022/05/13 08:35:58;;;;;;;7.97;1.88;;;15.40;99.90;;;;;;5053890;28;20046;-89
2022/05/13 08:38:27;;;;;;;8.35;1.75;;;15.40;99.90;;;;;;5053769;28;20105;-89
2022/05/13 08:41:08;;;;;;;8.23;1.73;;;15.40;99.90;;;;;;5035869;28;20033;-89
2022/05/13 08:43:45;;;;;;;8.27;1.63;;;15.20;99.90;;;;;;5037170;28;20048;-90
2022/05/13 08:46:16;;;;;;;8.40;1.95;;;15.20;99.90;;;;;;5052830;28;20050;-89
2022/05/13 08:49:00;;;;;;;6.38;1.52;;;15.20;99.90;;;;;;5052975;28;20052;-89
2022/05/13 08:51:38;;;;;;;7.80;2.17;;;15.20;99.90;;;;;;5031051;28;20052;-89
2022/05/13 08:54:19;;;;;;;8.15;1.90;;;15.20;99.90;;;;;;5052027;28;20059;-89
2022/05/13 08:56:54;;;;;;;9.57;1.88;;;15.20;99.90;;;;;;5053808;28;20398;-89
2022/05/13 08:59:28;;;;;;;7.03;1.80;;;15.40;99.90;;;;;;5053189;28;20036;-90
2022/05/13 09:02:00;;;;;;;10.75;2.40;;;15.50;99.90;;;;;;5036501;28;20090;-90
2022/05/13 09:04:32;;;;;;;9.27;2.08;;;15.60;99.90;;;;;;5035885;28;20154;-89
2022/05/13 09:07:00;;;;;;;;;;;15.70;99.90;;;;;;5053486;28;20117;-90
2022/05/13 09:09:26;;;;;;;7.50;1.70;;;15.70;99.90;;;;;;5052916;28;19916;-90
2022/05/13 09:12:17;;;;;;;10.40;1.85;;;15.70;99.30;;;;;;5036255;28;20516;-90
2022/05/13 09:15:04;;;;;;;9.15;2.10;;;15.60;99.20;;;;;;5054255;28;20406;-90
2022/05/13 09:17:37;;;;;;;8.73;2.03;;;15.50;99.40;;;;;;5052791;28;20048;-90
2022/05/13 09:20:11;;;;;;;7.95;1.70;;;15.50;99.90;;;;;;5052913;28;20123;-90
2022/05/13 09:22:54;;;;;;;11.50;1.95;;;15.50;99.90;;;;;;5036147;28;20071;-90
2022/05/13 09:25:35;;;;;;;7.22;1.75;;;15.70;99.90;;;;;;5069443;28;20059;-90
2022/05/13 09:28:11;;;;;;;7.70;1.77;;;15.80;99.60;;;;;;5052421;28;20068;-90
2022/05/13 09:30:39;;;;;;;10.23;1.95;;;15.80;99.60;;;;;;5068868;28;20051;-90
2022/05/13 09:33:24;;;;;;;7.72;1.88;;;15.80;99.70;;;;;;5056630;28;20051;-89
2022/05/13 09:35:56;;;;;;;11.70;2.10;;;15.70;99.10;;;;;;5052237;28;20041;-90
2022/05/13 09:38:31;;;;;;;7.85;1.65;;;15.70;99.90;;;;;;5053350;28;20038;-90
2022/05/13 09:41:04;;;;;;;11.25;2.25;;;15.70;99.40;;;;;;5069042;28;20131;-89
2022/05/13 09:43:50;;;;;;;7.80;1.55;;;15.70;98.50;;;;;;5062467;28;20037;-89
2022/05/13 09:46:23;;;;;;;9.23;1.70;;;15.80;97.80;;;;;;5069278;28;20452;-89
2022/05/13 09:49:01;;;;;;;7.32;1.98;;;15.90;99.50;;;;;;5043258;28;20040;-90
2022/05/13 09:51:55;;;;;;;10.40;2.00;;;16.00;98.40;;;;;;5035589;28;20127;-89
2022/05/13 09:54:31;;;;;;;5.20;1.42;;;16.00;98.80;;;;;;5035598;28;20133;-89
2022/05/13 09:57:29;;;;;;;7.07;1.60;;;15.90;99.10;;;;;;5053166;28;20517;-90
2022/05/13 10:00:15;;;;;;;10.85;2.33;;;15.90;99.30;;;;;;5051916;28;20043;-89
2022/05/13 10:02:44;;;;;;;7.72;1.70;;;15.90;98.40;;;;;;5052693;28;20040;-89
2022/05/13 10:05:22;;;;;;;9.82;1.88;;;15.80;99.20;;;;;;5052127;28;20044;-89
2022/05/13 10:07:51;;;;;;;8.02;1.52;;;15.80;98.50;;;;;;5051829;28;20044;-89
2022/05/13 10:16:07;;;;;;;6.55;1.60;;;15.60;98.60;;;;;;5052583;28;20124;-89
2022/05/13 10:18:37;;;;;;;7.45;1.50;;;15.60;99.10;;;;;;5052354;28;20040;-89
2022/05/13 10:21:13;;;;;;;7.75;1.85;;;15.70;99.90;;;;;;5052076;28;20041;-89
2022/05/13 10:23:53;;;;;;;10.60;1.60;;;15.90;99.60;;;;;;5035156;28;20234;-90
2022/05/13 10:26:22;;;;;;;9.00;1.85;;;16.20;99.50;;;;;;5052168;28;20498;-90
2022/05/13 10:29:03;;;;;;;9.15;1.95;;;16.50;99.30;;;;;;5054886;28;20456;-89
2022/05/13 10:31:34;;;;;;;9.18;1.60;;;16.60;97.40;;;;;;5038861;28;20063;-89
2022/05/13 10:34:33;;;;;;;7.72;1.80;;;16.60;96.60;;;;;;5038484;28;20067;-90
2022/05/13 10:36:58;;;;;;;9.52;1.80;;;16.50;95.80;;;;;;5055657;28;20044;-90
2022/05/13 10:39:36;;;;;;;7.22;1.50;;;16.80;97.60;;;;;;5039601;28;20051;-90
2022/05/13 10:42:09;;;;;;;7.38;1.52;;;16.90;93.50;;;;;;5037860;28;20044;-90
2022/05/13 10:44:58;;;;;;;8.45;1.77;;;16.90;95.00;;;;;;5038406;28;20033;-89
2022/05/13 10:48:00;;;;;;;7.75;1.77;;;16.90;95.30;;;;;;5054341;28;20111;-90
2022/05/13 10:50:34;;;;;;;13.77;2.25;;;16.90;95.80;;;;;;5038249;28;20045;-89
2022/05/13 10:53:09;;;;;;;8.45;2.00;;;16.90;96.50;;;;;;5054819;28;20120;-89
2022/05/13 10:55:38;;;;;;;10.73;2.35;;;16.90;94.50;;;;;;5039025;28;20043;-88
2022/05/13 10:58:42;;;;;;;7.72;2.10;;;16.90;94.90;;;;;;5055195;28;20063;-89
2022/05/13 11:01:39;;;;;;;9.35;2.58;;;16.90;95.10;;;;;;5035500;28;20053;-89
2022/05/13 11:04:23;;;;;;;8.57;2.28;;;17.10;95.20;;;;;;5035283;28;20103;-89
2022/05/13 11:07:25;;;;;;;8.38;2.28;;;17.20;94.30;;;;;;5029892;28;20044;-90
2022/05/13 11:10:29;;;;;;;10.25;2.53;;;17.20;93.90;;;;;;5000053;28;20102;-89
2022/05/13 11:13:05;;;;;;;8.75;1.98;;;17.30;96.70;;;;;;5053923;28;20044;-89
2022/05/13 11:15:54;;;;;;;11.25;2.13;;;17.60;94.30;;;;;;5037626;28;20041;-89
2022/05/13 11:18:35;;;;;;;8.15;1.90;;;17.60;93.00;;;;;;5054875;28;20043;-89
2022/05/13 11:21:07;;;;;;;12.88;2.28;;;17.60;91.50;;;;;;5040389;28;20040;-90
2022/05/13 11:25:54;;;;;;;8.40;1.65;;;17.50;90.60;;;;;;5040130;28;20037;-89
2022/05/13 11:26:41;;;;;;;9.48;2.15;;;17.50;83.80;;;;;;5054937;28;20406;-89
2022/05/13 11:29:11;;;;;;;10.67;2.60;;;17.60;89.10;;;;;;5054062;28;20109;-89
2022/05/13 11:31:37;;;;;;;7.85;1.85;;;17.70;88.20;;;;;;5053704;28;20121;-89
2022/05/13 11:34:20;;;;;;;7.68;2.10;;;17.60;82.40;;;;;;5054157;28;20106;-90
2022/05/13 11:37:07;;;;;;;8.90;2.00;;;17.50;79.30;;;;;;5054961;28;20045;-89
2022/05/13 11:40:03;;;;;;;10.20;2.30;;;17.30;86.00;;;;;;5053306;28;20037;-89
2022/05/13 11:45:49;;;;;;;9.50;2.50;;;17.30;92.10;;;;;;5040030;28;20397;-90
2022/05/13 11:48:36;;;;;;;10.93;2.47;;;17.70;92.70;;;;;;5072065;28;20044;-89
2022/05/13 11:51:11;;;;;;;9.40;2.17;;;17.80;91.20;;;;;;5053989;28;20036;-90
2022/05/13 11:53:47;;;;;;;8.73;1.90;;;17.70;87.00;;;;;;5053924;28;20452;-90
2022/05/13 11:56:30;;;;;;;8.98;2.60;;;17.60;85.50;;;;;;5058139;28;20497;-90
2022/05/13 11:59:01;;;;;;;8.65;2.42;;;17.60;85.20;;;;;;5048560;28;20068;-90
2022/05/13 12:01:38;;;;;;;7.68;1.98;;;17.40;89.60;;;;;;5034227;28;20037;-90
2022/05/13 12:04:18;;;;;;;8.75;2.60;;;17.40;91.20;;;;;;5034800;28;20090;-90
2022/05/13 12:06:50;;;;;;;9.25;2.17;;;17.50;86.00;;;;;;5050858;28;20701;-90
2022/05/13 12:09:31;;;;;;;9.38;2.08;;;17.50;88.90;;;;;;5036916;28;20050;-90
2022/05/13 12:12:34;;;;;;;11.50;2.35;;;17.60;91.70;;;;;;5035753;28;20501;-90
2022/05/13 12:15:00;;;;;;;10.45;2.05;;;17.50;91.10;;;;;;5036329;28;20528;-90
2022/05/13 12:17:41;;;;;;;10.88;2.10;;;17.50;90.50;;;;;;5053477;28;20040;-90
2022/05/13 12:20:26;;;;;;;9.15;1.90;;;17.50;90.00;;;;;;5053111;28;20048;-90
2022/05/13 12:23:06;;;;;;;11.30;2.20;;;17.50;90.10;;;;;;5053281;28;20468;-90
2022/05/13 12:25:32;;;;;;;8.18;2.28;;;17.50;92.30;;;;;;5036723;28;20047;-89
2022/05/13 12:28:21;;;;;;;12.57;2.90;;;17.70;92.90;;;;;;5070361;28;20416;-90
2022/05/13 12:30:50;;;;;;;8.30;2.38;;;17.90;92.50;;;;;;5053023;28;20089;-90
2022/05/13 12:33:24;;;;;;;7.97;1.95;;;17.90;91.00;;;;;;5052808;28;20433;-90
2022/05/13 12:39:10;;;;;;;9.10;2.10;;;17.80;86.10;;;;;;5053502;28;20048;-91
2022/05/13 12:41:42;;;;;;;7.97;1.80;;;17.70;85.60;;;;;;5036058;28;20470;-90
2022/05/13 12:44:14;;;;;;;9.18;2.08;;;17.80;86.30;;;;;;5036741;28;20051;-90
2022/05/13 12:46:52;;;;;;;8.45;1.95;;;17.90;90.50;;;;;;5052949;28;20461;-90
2022/05/13 12:49:19;;;;;;;8.93;2.22;;;18.10;83.00;;;;;;5051696;28;20112;-90
2022/05/13 12:52:04;;;;;;;8.45;2.25;;;18.20;89.30;;;;;;5068608;28;20040;-90
2022/05/13 12:54:40;;;;;;;10.57;2.22;;;18.20;77.10;;;;;;5052173;28;20036;-89
2022/05/13 12:57:20;;;;;;;10.32;2.42;;;18.40;77.40;;;;;;5068433;28;20440;-90
2022/05/13 12:59:51;;;;;;;8.02;1.92;;;18.40;80.20;;;;;;5038208;28;20059;-90
2022/05/13 13:02:21;;;;;;;8.27;2.20;;;18.30;74.60;;;;;;5044425;28;20048;-90
2022/05/13 13:04:56;;;;;;;9.35;2.22;;;18.10;76.10;;;;;;5052702;28;20037;-90
2022/05/13 13:07:25;;;;;;;7.95;2.30;;;18.10;79.50;;;;;;5052032;28;20523;-90
2022/05/13 13:09:51;;;;;;;10.68;2.20;;;18.10;78.50;;;;;;5068809;28;20090;-90
2022/05/13 13:12:37;;;;;;;11.10;2.20;;;18.10;80.20;;;;;;5035216;28;20040;-90
2022/05/13 13:15:20;;;;;;;11.88;2.25;;;18.20;83.10;;;;;;5046235;28;20082;-90
2022/05/13 13:18:04;;;;;;;8.63;2.03;;;18.30;78.60;;;;;;5028108;28;20041;-90
2022/05/13 13:20:31;;;;;;;9.90;2.33;;;18.40;79.50;;;;;;5067815;28;20082;-90
2022/05/13 13:23:05;;;;;;;9.70;2.10;;;18.30;77.30;;;;;;5036164;28;20032;-91
2022/05/13 13:25:42;;;;;;;9.55;2.35;;;18.40;80.10;;;;;;5052533;28;20036;-91
2022/05/13 13:28:35;;;;;;;7.35;1.98;;;18.50;78.10;;;;;;5052809;28;20093;-91
2022/05/13 13:31:09;;;;;;;8.93;2.30;;;18.40;76.70;;;;;;5074051;28;20060;-92
2022/05/13 13:33:43;;;;;;;10.55;2.30;;;18.40;76.50;;;;;;5052242;28;20549;-91
2022/05/13 13:36:24;;;;;;;11.13;2.17;;;18.30;76.30;;;;;;5051669;28;20071;-91
2022/05/13 13:38:55;;;;;;;9.23;2.55;;;18.20;77.30;;;;;;5051757;28;20048;-91